Time;durP1;ratioP1;P1;durP2;ratioP2;P2;SDS_P1;SDS_P2;PMS_P1;PMS_P2;Temp;Humidity;BMP_temperature;BMP_pressure;BME280_temperature;BME280_humidity;BME280_pressure;Samples;Min_cycle;Max_cycle;Signal;HPM_P1;HPM_P2
2022/07/25 00:08:21;;;;;;;3.9;6.1;;;;;;;13.5;100;98830;;;;
2022/07/25 00:18:21;;;;;;;3.1;5.3;;;;;;;13.3;100;98830;;;;
2022/07/25 00:28:21;;;;;;;3.1;5.3;;;;;;;13.1;100;98820;;;;
2022/07/25 00:39:21;;;;;;;3.1;5.3;;;;;;;12.9;100;98810;;;;
2022/07/25 00:50:21;;;;;;;3;5.5;;;;;;;12.9;100;98820;;;;
2022/07/25 01:00:21;;;;;;;3;5.5;;;;;;;12.7;100;98800;;;;
2022/07/25 01:11:21;;;;;;;3;5.5;;;;;;;12.7;100;98790;;;;
2022/07/25 01:22:21;;;;;;;2.8;5.1;;;;;;;12.6;100;98780;;;;
2022/07/25 01:32:21;;;;;;;2.8;5.1;;;;;;;12.5;100;98780;;;;
2022/07/25 01:42:21;;;;;;;2.8;5.1;;;;;;;12.4;100;98780;;;;
2022/07/25 01:53:21;;;;;;;2.8;5.2;;;;;;;12.2;100;98780;;;;
2022/07/25 02:04:21;;;;;;;2.8;5.2;;;;;;;12.1;100;98770;;;;
2022/07/25 02:14:21;;;;;;;2.9;9.5;;;;;;;11.9;100;98770;;;;
2022/07/25 02:25:21;;;;;;;2.9;9.5;;;;;;;11.8;100;98760;;;;
2022/07/25 02:35:21;;;;;;;2.9;9.5;;;;;;;11.5;100;98770;;;;
2022/07/25 02:46:21;;;;;;;4.1;6.1;;;;;;;11.6;100;98770;;;;
2022/07/25 02:56:21;;;;;;;4.1;6.1;;;;;;;11.6;100;98770;;;;
2022/07/25 03:07:21;;;;;;;4.1;6.1;;;;;;;11.6;100;98770;;;;
2022/07/25 03:17:21;;;;;;;3.9;6.7;;;;;;;11.6;100;98770;;;;
2022/07/25 03:27:21;;;;;;;3.9;6.7;;;;;;;11.7;100;98780;;;;
2022/07/25 03:37:21;;;;;;;3.9;6.7;;;;;;;11.8;100;98780;;;;
2022/07/25 03:48:21;;;;;;;4.3;6.8;;;;;;;12;100;98790;;;;
2022/07/25 03:58:21;;;;;;;4.3;6.8;;;;;;;12.2;100;98790;;;;
2022/07/25 04:09:21;;;;;;;4.3;6.8;;;;;;;12.5;100;98780;;;;
2022/07/25 04:19:21;;;;;;;4.2;6.5;;;;;;;12.9;100;98770;;;;
2022/07/25 04:30:21;;;;;;;4.2;6.5;;;;;;;13.3;100;98770;;;;
2022/07/25 04:40:21;;;;;;;4.2;6.5;;;;;;;13.5;100;98760;;;;
2022/07/25 04:51:21;;;;;;;4.4;7.8;;;;;;;14.1;100;98750;;;;
2022/07/25 05:01:21;;;;;;;4.4;7.8;;;;;;;14.7;100;98750;;;;
2022/07/25 05:12:21;;;;;;;4.4;7.8;;;;;;;15.2;100;98750;;;;
2022/07/25 05:22:21;;;;;;;5.1;7.7;;;;;;;15.8;100;98750;;;;
2022/07/25 05:32:21;;;;;;;5.1;7.7;;;;;;;16;100;98750;;;;
2022/07/25 05:42:21;;;;;;;5.1;7.7;;;;;;;16.5;100;98750;;;;
2022/07/25 05:52:21;;;;;;;5.7;11.4;;;;;;;17.1;100;98750;;;;
2022/07/25 06:02:21;;;;;;;5.7;11.4;;;;;;;17.3;100;98750;;;;
2022/07/25 06:13:21;;;;;;;5.7;11.4;;;;;;;17.8;100;98750;;;;
2022/07/25 06:23:21;;;;;;;3.5;6.9;;;;;;;18.4;100;98740;;;;
2022/07/25 06:34:21;;;;;;;3.5;6.9;;;;;;;19;100;98740;;;;
2022/07/25 06:44:21;;;;;;;4.2;7.1;;;;;;;19.1;100;98730;;;;
2022/07/25 06:55:21;;;;;;;4.2;7.1;;;;;;;20;100;98710;;;;
2022/07/25 07:05:21;;;;;;;4.2;7.1;;;;;;;20.4;100;98700;;;;
2022/07/25 07:16:21;;;;;;;3.3;7;;;;;;;20.7;100;98690;;;;
2022/07/25 07:27:22;;;;;;;3.3;7;;;;;;;21.5;100;98680;;;;
2022/07/25 07:37:21;;;;;;;3.3;7;;;;;;;22.2;100;98680;;;;
2022/07/25 07:48:21;;;;;;;2.7;5.1;;;;;;;22.7;100;98680;;;;
2022/07/25 07:58:21;;;;;;;2.7;5.1;;;;;;;23.1;100;98680;;;;
2022/07/25 08:08:22;;;;;;;2.7;5.1;;;;;;;23.4;99.1;98680;;;;
2022/07/25 08:19:21;;;;;;;2.2;4.6;;;;;;;23.8;100;98670;;;;
2022/07/25 08:30:21;;;;;;;2.2;4.6;;;;;;;24;95;98670;;;;
2022/07/25 08:41:21;;;;;;;2.2;4.6;;;;;;;24.2;87.2;98660;;;;
2022/07/25 08:51:21;;;;;;;1.6;4.3;;;;;;;24.5;89;98650;;;;
2022/07/25 09:02:21;;;;;;;1.6;4.3;;;;;;;24.6;88.5;98650;;;;
2022/07/25 09:13:22;;;;;;;1.6;4.3;;;;;;;24.9;82.4;98650;;;;
2022/07/25 09:24:21;;;;;;;1.6;5.4;;;;;;;25.3;84.4;98650;;;;
2022/07/25 09:34:21;;;;;;;1.6;5.4;;;;;;;25.4;78.3;98640;;;;
2022/07/25 09:44:21;;;;;;;1.2;2.7;;;;;;;26.1;70.3;98630;;;;
2022/07/25 09:54:22;;;;;;;1.2;2.7;;;;;;;25.9;69.3;98630;;;;
2022/07/25 10:05:21;;;;;;;1.2;2.7;;;;;;;25.8;68.4;98610;;;;
2022/07/25 10:26:08;;;;;;;;;;;;;;;;;;;;;
2022/07/25 10:36:09;;;;;;;1.4;3;;;;;;;25.8;69.3;98590;;;;
2022/07/25 10:47:07;;;;;;;1.3;3.6;;;;;;;26.2;65.9;98570;;;;
2022/07/25 10:57:07;;;;;;;1.3;3.6;;;;;;;26.6;64.3;98560;;;;
2022/07/25 11:08:07;;;;;;;1.3;3.6;;;;;;;26.7;66.1;98550;;;;
2022/07/25 11:18:07;;;;;;;1.2;2.8;;;;;;;26.7;64.4;98540;;;;
2022/07/25 11:29:07;;;;;;;1.2;2.8;;;;;;;27;65.5;98530;;;;
2022/07/25 11:39:07;;;;;;;1.2;2.8;;;;;;;27.2;61.2;98510;;;;
2022/07/25 11:49:07;;;;;;;1.2;2.5;;;;;;;27.1;62.1;98500;;;;
2022/07/25 11:59:08;;;;;;;1.2;2.5;;;;;;;27.4;60.2;98490;;;;
2022/07/25 12:10:07;;;;;;;1.2;2.5;;;;;;;27.7;61.9;98470;;;;
2022/07/25 12:21:08;;;;;;;1.3;2.7;;;;;;;27.8;63.3;98460;;;;
2022/07/25 12:31:08;;;;;;;1.3;2.7;;;;;;;27.9;62.9;98450;;;;
2022/07/25 12:41:07;;;;;;;1.3;2.7;;;;;;;28.2;68.1;98440;;;;
2022/07/25 12:52:07;;;;;;;1.3;3;;;;;;;28.1;62.3;98420;;;;
2022/07/25 13:02:07;;;;;;;1.3;3;;;;;;;28.5;64.4;98410;;;;
2022/07/25 13:13:07;;;;;;;1.3;3;;;;;;;28.8;64.4;98400;;;;
2022/07/25 13:23:07;;;;;;;1.5;3.5;;;;;;;28.6;62.4;98380;;;;
2022/07/25 13:34:07;;;;;;;1.5;3.5;;;;;;;29;67.5;98370;;;;
2022/07/25 13:44:07;;;;;;;1.5;3.5;;;;;;;29.4;71.1;98350;;;;
2022/07/25 13:55:09;;;;;;;1.3;3.5;;;;;;;29.8;63.3;98340;;;;
2022/07/25 14:05:07;;;;;;;1.3;3.5;;;;;;;29.9;60.9;98330;;;;
2022/07/25 14:15:07;;;;;;;1.3;3.5;;;;;;;29.6;57.3;98320;;;;
2022/07/25 14:26:07;;;;;;;1.8;4.4;;;;;;;30.3;57.1;98310;;;;
2022/07/25 14:37:07;;;;;;;1.8;4.4;;;;;;;31;57.2;98300;;;;
2022/07/25 14:47:07;;;;;;;1.8;4.4;;;;;;;30.3;58.7;98290;;;;
2022/07/25 14:58:07;;;;;;;1.5;3.9;;;;;;;31;53.1;98270;;;;
2022/07/25 15:09:07;;;;;;;1.5;3.9;;;;;;;31.3;50.7;98260;;;;
2022/07/25 15:20:07;;;;;;;1.5;3;;;;;;;35.5;45.6;98250;;;;
2022/07/25 15:30:07;;;;;;;1.5;3;;;;;;;36.3;41.3;98250;;;;
2022/07/25 15:40:07;;;;;;;1.5;3;;;;;;;39;39.6;98250;;;;
2022/07/25 15:51:07;;;;;;;1.2;2.4;;;;;;;37.5;38.2;98240;;;;
2022/07/25 16:01:08;;;;;;;1.2;2.4;;;;;;;38.1;37.6;98220;;;;
2022/07/25 16:12:07;;;;;;;1.2;2.4;;;;;;;39.1;37.1;98210;;;;
2022/07/25 16:22:07;;;;;;;1.2;3.7;;;;;;;33.8;44.1;98190;;;;
2022/07/25 16:33:07;;;;;;;1.2;3.7;;;;;;;34.5;43.4;98190;;;;
2022/07/25 16:44:07;;;;;;;1.2;3.7;;;;;;;34.6;44.3;98190;;;;
2022/07/25 16:55:07;;;;;;;1.4;3.8;;;;;;;35.3;42.2;98180;;;;
2022/07/25 17:05:07;;;;;;;1.4;3.8;;;;;;;34.7;42.7;98180;;;;
2022/07/25 17:16:07;;;;;;;1.4;3.8;;;;;;;35;41.9;98170;;;;
2022/07/25 17:26:07;;;;;;;1.5;4.1;;;;;;;32.6;46.2;98160;;;;
2022/07/25 17:36:07;;;;;;;1.5;4.1;;;;;;;30.1;53.8;98140;;;;
2022/07/25 17:47:07;;;;;;;1.5;4.1;;;;;;;28.6;58.1;98130;;;;
2022/07/25 17:57:07;;;;;;;1.5;4.1;;;;;;;28.7;58.2;98130;;;;
2022/07/25 18:08:07;;;;;;;1.5;4.1;;;;;;;27.2;63.8;98130;;;;
2022/07/25 18:18:09;;;;;;;2.3;4.8;;;;;;;26.5;65.2;98120;;;;
2022/07/25 18:28:07;;;;;;;2.3;4.8;;;;;;;25.6;68.4;98110;;;;
2022/07/25 18:39:07;;;;;;;2.3;4.8;;;;;;;24.8;75.7;98100;;;;
2022/07/25 18:50:07;;;;;;;2.9;5.1;;;;;;;23.9;79.7;98090;;;;
2022/07/25 19:00:07;;;;;;;2.9;5.1;;;;;;;23.3;82;98090;;;;
2022/07/25 19:10:07;;;;;;;2.9;5.1;;;;;;;22.7;83.8;98080;;;;
2022/07/25 19:21:07;;;;;;;2.9;5.7;;;;;;;22.3;86.8;98080;;;;
2022/07/25 19:31:07;;;;;;;2.9;5.7;;;;;;;22;88.7;98080;;;;
2022/07/25 19:42:08;;;;;;;2.9;5.7;;;;;;;21.6;89.3;98060;;;;
2022/07/25 19:52:07;;;;;;;3.5;7.4;;;;;;;21.4;89;98060;;;;
2022/07/25 20:03:07;;;;;;;3.5;7.4;;;;;;;21;90.4;98050;;;;
2022/07/25 20:14:07;;;;;;;3.5;7.4;;;;;;;20.6;93.6;98030;;;;
2022/07/25 20:24:07;;;;;;;3.7;6.6;;;;;;;20.3;95.7;98030;;;;
2022/07/25 20:35:07;;;;;;;3.7;6.6;;;;;;;20;96.9;98030;;;;
2022/07/25 20:45:07;;;;;;;3.7;6.6;;;;;;;19.7;100;98040;;;;
2022/07/25 20:55:07;;;;;;;4.5;8.4;;;;;;;19.3;100;98030;;;;
2022/07/25 21:06:07;;;;;;;4.5;8.4;;;;;;;19;100;98030;;;;
2022/07/25 21:16:07;;;;;;;4.5;8.4;;;;;;;18.7;100;98040;;;;
2022/07/25 21:26:07;;;;;;;5.6;10.1;;;;;;;18.5;100;98040;;;;
2022/07/25 21:37:07;;;;;;;5.6;10.1;;;;;;;18.2;100;98040;;;;
2022/07/25 21:48:07;;;;;;;4.6;8.7;;;;;;;18.2;100;98040;;;;
2022/07/25 21:58:07;;;;;;;4.6;8.7;;;;;;;17.9;100;98030;;;;
2022/07/25 22:09:07;;;;;;;4.6;8.7;;;;;;;17.7;100;98030;;;;
2022/07/25 22:19:07;;;;;;;4.1;7;;;;;;;17.6;100;98030;;;;
2022/07/25 22:30:07;;;;;;;4.1;7;;;;;;;17.5;100;98020;;;;
2022/07/25 22:40:07;;;;;;;4.1;7;;;;;;;17.3;100;98010;;;;
2022/07/25 22:50:07;;;;;;;4.5;8.1;;;;;;;17.2;100;98000;;;;
2022/07/25 23:01:07;;;;;;;4.5;8.1;;;;;;;17.1;100;97970;;;;
2022/07/25 23:12:07;;;;;;;4.5;8.1;;;;;;;16.9;100;97960;;;;
2022/07/25 23:22:07;;;;;;;3.9;8.1;;;;;;;16.7;100;97960;;;;
2022/07/25 23:33:07;;;;;;;3.9;8.1;;;;;;;16.5;100;97940;;;;
2022/07/25 23:44:07;;;;;;;3.9;8.1;;;;;;;16.4;100;97950;;;;
2022/07/25 23:55:07;;;;;;;3.8;6.8;;;;;;;16.2;100;97950;;;;
